Time;durP1;ratioP1;P1;durP2;ratioP2;P2;SDS_P1;SDS_P2;PMS_P1;PMS_P2;Temp;Humidity;BMP_temperature;BMP_pressure;BME280_temperature;BME280_humidity;BME280_pressure;Samples;Min_cycle;Max_cycle;Signal;HPM_P1;HPM_P2
2022/11/05 00:09:31;;;;;;;7.70;6.22;;;6.30;99.90;;;;;;4960935;28;87537;-31
2022/11/05 00:17:32;;;;;;;10.00;6.13;;;6.30;99.90;;;;;;4960169;28;88336;-29
2022/11/05 00:19:58;;;;;;;10.73;6.05;;;6.30;99.90;;;;;;4960346;28;88347;-32
2022/11/05 00:25:17;;;;;;;11.85;6.25;;;6.40;99.90;;;;;;4960944;28;90264;-28
2022/11/05 00:27:51;;;;;;;6.88;5.35;;;6.40;99.90;;;;;;4959768;28;87565;-31
2022/11/05 00:30:22;;;;;;;13.90;6.40;;;6.40;99.90;;;;;;4960944;28;89899;-27
2022/11/05 00:32:49;;;;;;;8.20;6.15;;;6.40;99.90;;;;;;4960084;28;90406;-28
2022/11/05 00:35:17;;;;;;;9.65;6.53;;;6.40;99.90;;;;;;4960555;28;91151;-30
2022/11/05 00:37:43;;;;;;;10.33;5.30;;;6.40;99.90;;;;;;4960077;28;90268;-30
2022/11/05 00:40:09;;;;;;;11.65;5.40;;;6.40;99.90;;;;;;4959576;28;89131;-30
2022/11/05 00:45:20;;;;;;;12.93;5.82;;;6.40;99.90;;;;;;4959442;28;90064;-27
2022/11/05 00:50:30;;;;;;;10.50;5.20;;;6.50;99.90;;;;;;4960383;28;87944;-28
2022/11/05 00:52:59;;;;;;;9.75;5.45;;;6.60;99.90;;;;;;4959564;28;90298;-28
2022/11/05 00:55:33;;;;;;;;;;;6.60;99.90;;;;;;4960375;28;89793;-33
2022/11/05 00:58:01;;;;;;;9.45;4.68;;;6.70;99.90;;;;;;4959903;28;89274;-29
2022/11/05 01:00:28;;;;;;;;;;;6.80;99.90;;;;;;4960950;28;88126;-30
2022/11/05 01:02:57;;;;;;;8.27;4.80;;;6.80;99.90;;;;;;4947653;28;89856;-31
2022/11/05 01:05:23;;;;;;;8.77;5.75;;;6.80;99.90;;;;;;4960009;28;89195;-31
2022/11/05 01:07:50;;;;;;;10.85;6.30;;;6.80;99.90;;;;;;4959473;28;87627;-27
2022/11/05 01:10:15;;;;;;;6.93;4.75;;;6.70;99.90;;;;;;4962288;28;88418;-30
2022/11/05 01:12:41;;;;;;;7.38;5.32;;;6.70;99.90;;;;;;4963411;28;90174;-29
2022/11/05 01:15:08;;;;;;;7.85;5.60;;;6.70;99.90;;;;;;4963281;28;91615;-30
2022/11/05 01:17:33;;;;;;;12.52;6.35;;;6.70;99.90;;;;;;4962900;28;88223;-30
2022/11/05 01:19:59;;;;;;;10.27;5.55;;;6.60;99.90;;;;;;4963212;28;89979;-29
2022/11/05 01:22:24;;;;;;;9.73;6.22;;;6.60;99.90;;;;;;4962549;28;90638;-28
2022/11/05 01:24:50;;;;;;;9.85;5.38;;;6.60;99.90;;;;;;4962889;28;89660;-30
2022/11/05 01:27:15;;;;;;;9.00;4.63;;;6.50;99.90;;;;;;4960950;28;87792;-29
2022/11/05 01:29:41;;;;;;;7.00;4.47;;;6.50;99.90;;;;;;4962870;28;87672;-29
2022/11/05 01:32:07;;;;;;;11.57;5.35;;;6.40;99.90;;;;;;4962614;28;89980;-29
2022/11/05 01:34:33;;;;;;;9.48;5.05;;;6.40;99.90;;;;;;4962768;28;89884;-28
2022/11/05 01:36:58;;;;;;;11.90;5.75;;;6.40;99.90;;;;;;4962920;28;88177;-28
2022/11/05 01:39:24;;;;;;;11.23;5.95;;;6.30;99.90;;;;;;4962740;28;89625;-29
2022/11/05 01:41:49;;;;;;;6.75;4.65;;;6.30;99.90;;;;;;4962038;28;90318;-30
2022/11/05 01:44:53;;;;;;;13.23;5.15;;;6.30;99.90;;;;;;4961976;28;89307;-30
2022/11/05 01:47:45;;;;;;;9.55;4.45;;;6.30;99.90;;;;;;4962315;28;89652;-32
2022/11/05 01:50:31;;;;;;;10.07;6.20;;;6.30;99.90;;;;;;4962802;28;88715;-32
2022/11/05 01:53:11;;;;;;;8.85;5.82;;;6.20;99.90;;;;;;4962046;28;90811;-31
2022/11/05 01:55:44;;;;;;;11.98;5.78;;;6.20;99.90;;;;;;4962087;28;90054;-29
2022/11/05 01:58:14;;;;;;;8.73;5.13;;;6.10;99.90;;;;;;4963106;28;87533;-28
2022/11/05 02:00:41;;;;;;;8.20;5.57;;;6.10;99.90;;;;;;4962314;28;89264;-29
2022/11/05 02:03:07;;;;;;;8.50;4.90;;;6.10;99.90;;;;;;4962478;28;88857;-29
2022/11/05 02:05:34;;;;;;;8.60;5.53;;;6.00;99.90;;;;;;4961909;28;90156;-30
2022/11/05 02:07:59;;;;;;;8.88;5.55;;;6.00;99.90;;;;;;4948640;28;87513;-27
2022/11/05 02:10:26;;;;;;;12.55;5.38;;;6.00;99.90;;;;;;4962158;28;88757;-29
2022/11/05 02:12:52;;;;;;;9.10;5.30;;;6.00;99.90;;;;;;4961914;28;90427;-31
2022/11/05 02:15:35;;;;;;;6.85;4.55;;;6.00;99.90;;;;;;4961886;28;89786;-31
2022/11/05 02:18:10;;;;;;;6.03;5.10;;;6.00;99.90;;;;;;4961657;28;89419;-30
2022/11/05 02:21:15;;;;;;;9.00;5.45;;;6.00;99.90;;;;;;4962599;28;87901;-29
2022/11/05 02:23:52;;;;;;;8.02;5.07;;;6.00;99.90;;;;;;4951225;28;90163;-27
2022/11/05 02:26:37;;;;;;;18.95;6.00;;;6.00;99.90;;;;;;4961637;28;89224;-30
2022/11/05 02:29:33;;;;;;;7.20;5.40;;;6.00;99.90;;;;;;4961693;28;88447;-30
2022/11/05 02:32:45;;;;;;;8.43;5.18;;;6.00;99.90;;;;;;4961999;28;87710;-30
2022/11/05 02:35:44;;;;;;;9.82;6.03;;;6.00;99.90;;;;;;4919375;28;89846;-32
2022/11/05 02:38:19;;;;;;;13.13;5.50;;;6.00;99.90;;;;;;4960289;28;89747;-28
2022/11/05 02:41:17;;;;;;;10.35;5.40;;;6.00;99.90;;;;;;4961883;28;90312;-28
2022/11/05 02:44:07;;;;;;;7.32;4.75;;;5.90;99.90;;;;;;4961648;28;87963;-30
2022/11/05 02:46:43;;;;;;;9.25;5.30;;;6.00;99.90;;;;;;4950185;28;90773;-27
2022/11/05 02:49:25;;;;;;;5.90;5.15;;;6.00;99.90;;;;;;4961997;28;89507;-30
2022/11/05 02:51:54;;;;;;;9.52;5.47;;;6.00;99.90;;;;;;4961873;28;88809;-28
2022/11/05 02:54:41;;;;;;;10.60;5.90;;;6.00;99.90;;;;;;4961665;28;88292;-28
2022/11/05 02:57:07;;;;;;;8.07;5.38;;;6.10;99.90;;;;;;4961748;28;90437;-32
2022/11/05 02:59:32;;;;;;;11.07;4.70;;;6.00;99.90;;;;;;4961975;28;89974;-28
2022/11/05 03:02:00;;;;;;;12.20;6.60;;;6.00;99.90;;;;;;4961589;28;88428;-30
2022/11/05 03:04:27;;;;;;;7.53;6.23;;;6.00;99.90;;;;;;4961620;28;89057;-30
2022/11/05 03:07:17;;;;;;;8.70;5.03;;;6.00;99.90;;;;;;4961019;28;90184;-29
2022/11/05 03:10:08;;;;;;;11.15;5.30;;;5.90;99.90;;;;;;4961660;28;90008;-31
2022/11/05 03:12:59;;;;;;;10.45;5.43;;;5.90;99.90;;;;;;4961370;28;89210;-28
2022/11/05 03:15:45;;;;;;;12.45;6.40;;;5.80;99.90;;;;;;4961554;28;87661;-31
2022/11/05 03:18:26;;;;;;;6.55;4.88;;;5.80;99.90;;;;;;4960746;28;90241;-31
2022/11/05 03:21:01;;;;;;;8.52;5.88;;;5.80;99.90;;;;;;4960526;28;89729;-30
2022/11/05 03:23:43;;;;;;;7.88;4.88;;;5.70;99.90;;;;;;4961543;28;90106;-31
2022/11/05 03:26:29;;;;;;;8.98;5.47;;;5.70;99.90;;;;;;4960991;28;88372;-30
2022/11/05 03:29:05;;;;;;;9.27;5.20;;;5.60;99.90;;;;;;4960807;28;89977;-31
2022/11/05 03:31:33;;;;;;;10.15;5.38;;;5.60;99.90;;;;;;4960812;28;89714;-30
2022/11/05 03:34:01;;;;;;;5.77;4.83;;;5.60;99.90;;;;;;4960937;28;88405;-30
2022/11/05 03:36:36;;;;;;;8.60;5.03;;;5.50;99.90;;;;;;4960951;28;88841;-27
2022/11/05 03:39:05;;;;;;;5.55;4.75;;;5.50;99.90;;;;;;4960007;28;90066;-29
2022/11/05 03:41:33;;;;;;;9.55;5.28;;;5.50;99.90;;;;;;4961651;28;89869;-30
2022/11/05 03:44:04;;;;;;;8.50;6.22;;;5.50;99.90;;;;;;4961570;28;87641;-30
2022/11/05 03:46:36;;;;;;;8.40;5.60;;;5.40;99.90;;;;;;4960575;28;87636;-30
2022/11/05 03:49:04;;;;;;;8.18;5.75;;;5.40;99.90;;;;;;4960439;28;90420;-28
2022/11/05 03:51:54;;;;;;;15.93;5.85;;;5.30;99.90;;;;;;4959654;28;89228;-29
2022/11/05 03:54:20;;;;;;;9.82;5.90;;;5.40;99.90;;;;;;4954158;28;89317;-29
2022/11/05 03:57:30;;;;;;;5.65;4.75;;;5.40;99.90;;;;;;4960566;28;88875;-28
2022/11/05 03:59:56;;;;;;;9.63;6.20;;;5.40;99.90;;;;;;4938076;28;90579;-32
2022/11/05 04:02:24;;;;;;;8.35;5.28;;;5.40;99.90;;;;;;4959226;28;90135;-30
2022/11/05 04:04:50;;;;;;;;;;;5.40;99.90;;;;;;4960358;28;88400;-30
2022/11/05 04:15:29;;;;;;;10.73;5.28;;;5.30;99.90;;;;;;4961404;28;88471;-29
2022/11/05 04:17:57;;;;;;;8.18;5.00;;;5.30;99.90;;;;;;4960080;28;89117;-30
2022/11/05 04:25:54;;;;;;;7.65;5.70;;;5.30;99.90;;;;;;4960309;28;89541;-27
2022/11/05 04:28:19;;;;;;;6.68;5.28;;;5.30;99.90;;;;;;4959737;28;87556;-29
2022/11/05 04:30:45;;;;;;;7.80;5.63;;;5.30;99.90;;;;;;4960526;28;90143;-30
2022/11/05 04:33:15;;;;;;;7.30;5.68;;;5.30;99.90;;;;;;4960511;28;89724;-29
2022/11/05 04:35:46;;;;;;;11.25;6.90;;;5.30;99.90;;;;;;4959722;28;88309;-29
2022/11/05 04:38:14;;;;;;;9.02;5.60;;;5.30;99.90;;;;;;4960502;28;90089;-30
2022/11/05 04:40:40;;;;;;;9.02;5.53;;;5.30;99.90;;;;;;4988750;22;91123;-31
2022/11/05 04:43:07;;;;;;;7.70;6.07;;;5.30;99.90;;;;;;4958810;28;90329;-32
2022/11/05 04:45:34;;;;;;;9.35;5.43;;;5.30;99.90;;;;;;4963630;28;89134;-31
2022/11/05 04:48:01;;;;;;;7.72;5.00;;;5.30;99.90;;;;;;4963119;28;88535;-30
2022/11/05 04:50:27;;;;;;;6.20;5.60;;;5.30;99.90;;;;;;4962935;28;90363;-30
2022/11/05 04:52:52;;;;;;;13.23;6.13;;;5.20;99.90;;;;;;4963700;28;90097;-28
2022/11/05 04:55:18;;;;;;;13.05;5.60;;;5.20;99.90;;;;;;4963842;28;88011;-28
2022/11/05 04:57:50;;;;;;;10.73;6.03;;;5.20;99.90;;;;;;4963432;28;87709;-29
2022/11/05 05:00:17;;;;;;;11.10;5.47;;;5.20;99.90;;;;;;4962576;28;90362;-31
2022/11/05 05:02:43;;;;;;;7.50;5.38;;;5.20;99.90;;;;;;4962607;28;89685;-27
2022/11/05 05:05:08;;;;;;;7.90;5.55;;;5.20;99.90;;;;;;4963168;28;88781;-30
2022/11/05 05:07:34;;;;;;;7.72;5.97;;;5.20;99.90;;;;;;4963442;28;88195;-29
2022/11/05 05:10:01;;;;;;;6.75;5.78;;;5.20;99.90;;;;;;4963414;28;91990;-28
2022/11/05 05:12:27;;;;;;;9.43;5.95;;;5.10;99.90;;;;;;4962836;28;90549;-32
2022/11/05 05:14:53;;;;;;;7.30;6.05;;;5.10;99.90;;;;;;4963295;28;87527;-28
2022/11/05 05:17:18;;;;;;;11.60;5.85;;;5.10;99.90;;;;;;4963302;28;89736;-29
2022/11/05 05:22:28;;;;;;;6.18;5.22;;;5.10;99.90;;;;;;4963874;28;88417;-29
2022/11/05 05:24:55;;;;;;;9.25;6.35;;;5.10;99.90;;;;;;4962736;28;89814;-29
2022/11/05 05:27:22;;;;;;;7.90;6.50;;;5.00;99.90;;;;;;4963645;28;90335;-29
2022/11/05 05:29:48;;;;;;;9.65;5.57;;;5.00;99.90;;;;;;4963023;28;90084;-28
2022/11/05 05:32:13;;;;;;;10.63;5.47;;;5.00;99.90;;;;;;4962311;28;89676;-29
2022/11/05 05:34:39;;;;;;;7.95;5.93;;;5.00;99.90;;;;;;4962689;28;87838;-33
2022/11/05 05:37:05;;;;;;;6.45;5.70;;;5.00;99.90;;;;;;4962779;28;89221;-28
2022/11/05 05:39:31;;;;;;;11.50;5.93;;;5.00;99.90;;;;;;4962497;28;90304;-30
2022/11/05 05:41:57;;;;;;;8.13;6.43;;;5.00;99.90;;;;;;4961184;28;90283;-29
2022/11/05 05:44:22;;;;;;;10.20;6.30;;;5.00;99.90;;;;;;4962977;28;88852;-30
2022/11/05 05:46:48;;;;;;;11.20;6.35;;;5.00;99.90;;;;;;4963009;28;88158;-31
2022/11/05 05:49:13;;;;;;;8.43;6.55;;;5.00;99.90;;;;;;4962031;28;90298;-30
2022/11/05 05:51:39;;;;;;;11.27;5.97;;;5.00;99.90;;;;;;4961923;28;88951;-28
2022/11/05 05:54:05;;;;;;;7.93;6.65;;;5.00;99.90;;;;;;4961885;28;87610;-29
2022/11/05 05:56:30;;;;;;;10.70;6.35;;;5.00;99.90;;;;;;4962606;28;88194;-30
2022/11/05 05:58:56;;;;;;;6.78;5.93;;;5.00;99.90;;;;;;4962046;28;90605;-28
2022/11/05 06:01:21;;;;;;;7.15;6.00;;;5.00;99.90;;;;;;4961867;28;89958;-30
2022/11/05 06:03:48;;;;;;;7.85;6.20;;;5.00;99.90;;;;;;4962014;28;88484;-31
2022/11/05 06:06:15;;;;;;;13.80;6.28;;;5.00;99.90;;;;;;4962078;28;89250;-28
2022/11/05 06:08:41;;;;;;;9.30;5.82;;;5.00;99.90;;;;;;4961716;28;90738;-30
2022/11/05 06:11:07;;;;;;;6.85;5.95;;;5.00;99.90;;;;;;4961987;28;89475;-28
2022/11/05 06:13:33;;;;;;;9.93;5.80;;;5.00;99.90;;;;;;4961699;28;90281;-28
2022/11/05 06:16:01;;;;;;;9.38;6.00;;;5.00;99.90;;;;;;4962102;28;90654;-29
2022/11/05 06:18:27;;;;;;;9.90;6.53;;;5.00;99.90;;;;;;4961992;28;89965;-29
2022/11/05 06:20:52;;;;;;;13.07;6.55;;;5.00;99.90;;;;;;4961597;28;89166;-28
2022/11/05 06:23:18;;;;;;;6.80;6.07;;;5.00;99.90;;;;;;4962201;28;90084;-32
2022/11/05 06:25:43;;;;;;;9.75;6.70;;;5.10;99.90;;;;;;4961967;28;89214;-31
2022/11/05 06:28:09;;;;;;;12.60;7.03;;;5.00;99.90;;;;;;4961041;28;89360;-32
2022/11/05 06:30:34;;;;;;;9.52;6.03;;;5.10;99.90;;;;;;4962141;28;89664;-31
2022/11/05 06:33:04;;;;;;;7.40;5.43;;;5.00;99.90;;;;;;4961802;28;88103;-28
2022/11/05 06:35:30;;;;;;;6.93;6.20;;;5.00;99.90;;;;;;4961682;28;87662;-27
2022/11/05 06:38:01;;;;;;;10.15;6.03;;;5.00;99.90;;;;;;4961460;28;90539;-28
2022/11/05 06:40:27;;;;;;;6.63;5.93;;;5.00;99.90;;;;;;4961198;28;89251;-32
2022/11/05 06:42:53;;;;;;;9.07;6.82;;;5.00;99.90;;;;;;4961980;28;88605;-28
2022/11/05 06:45:19;;;;;;;9.88;6.20;;;5.00;99.90;;;;;;4962177;28;89044;-28
2022/11/05 06:47:45;;;;;;;7.25;6.55;;;5.00;99.90;;;;;;4961719;28;90155;-29
2022/11/05 06:50:11;;;;;;;9.13;6.65;;;5.00;99.90;;;;;;4961489;28;89700;-30
2022/11/05 06:52:36;;;;;;;11.50;7.22;;;4.90;99.90;;;;;;4961863;28;88581;-29
2022/11/05 06:55:03;;;;;;;6.75;6.10;;;4.90;99.90;;;;;;4961617;28;87576;-28
2022/11/05 06:57:28;;;;;;;7.72;6.95;;;4.90;99.90;;;;;;4961484;28;90226;-28
2022/11/05 06:59:54;;;;;;;8.23;7.25;;;5.00;99.90;;;;;;4961735;28;90270;-27
2022/11/05 07:02:19;;;;;;;12.77;7.00;;;5.00;99.90;;;;;;4960725;28;90250;-28
2022/11/05 07:04:45;;;;;;;7.80;7.03;;;5.00;99.90;;;;;;4960866;28;89037;-32
2022/11/05 07:07:11;;;;;;;8.07;7.25;;;5.00;99.90;;;;;;4960770;28;89877;-31
2022/11/05 07:09:41;;;;;;;13.10;7.90;;;5.10;99.90;;;;;;4961400;28;89582;-32
2022/11/05 07:12:08;;;;;;;13.40;7.05;;;5.10;99.90;;;;;;4961662;28;90182;-29
2022/11/05 07:14:33;;;;;;;9.13;7.50;;;5.10;99.90;;;;;;4961442;28;88285;-28
2022/11/05 07:16:59;;;;;;;10.63;8.38;;;5.10;99.90;;;;;;4960625;28;91313;-31
2022/11/05 07:19:24;;;;;;;13.68;7.68;;;5.10;99.90;;;;;;4961586;28;89764;-30
2022/11/05 07:21:51;;;;;;;15.45;8.20;;;5.20;99.90;;;;;;4961441;28;89163;-29
2022/11/05 07:24:16;;;;;;;8.75;7.90;;;5.20;99.90;;;;;;4961319;28;89547;-29
2022/11/05 07:26:42;;;;;;;8.63;7.68;;;5.20;99.90;;;;;;4961034;28;90892;-29
2022/11/05 07:29:07;;;;;;;9.57;7.75;;;5.30;99.90;;;;;;4960735;28;89712;-31
2022/11/05 07:31:33;;;;;;;9.85;7.80;;;5.30;99.90;;;;;;4961298;28;87541;-28
2022/11/05 07:33:59;;;;;;;11.57;7.60;;;5.40;99.90;;;;;;4961305;28;89623;-30
2022/11/05 07:36:25;;;;;;;12.52;7.80;;;5.40;99.90;;;;;;4960514;28;89780;-27
2022/11/05 07:38:51;;;;;;;13.82;9.55;;;5.40;99.90;;;;;;4960126;28;89704;-31
2022/11/05 07:41:17;;;;;;;10.40;7.47;;;5.50;99.90;;;;;;4959596;28;89926;-27
2022/11/05 07:43:43;;;;;;;9.38;8.48;;;5.50;99.90;;;;;;4960113;28;89498;-31
2022/11/05 07:46:08;;;;;;;10.70;7.95;;;5.60;99.90;;;;;;4961261;28;90303;-31
2022/11/05 07:48:34;;;;;;;12.77;8.75;;;5.60;99.90;;;;;;4960255;28;89301;-30
2022/11/05 07:50:59;;;;;;;9.65;8.65;;;5.70;99.90;;;;;;4961406;28;90037;-28
2022/11/05 07:53:25;;;;;;;12.13;8.75;;;5.70;99.90;;;;;;4960624;28;88825;-28
2022/11/05 07:55:51;;;;;;;18.27;9.40;;;5.80;99.90;;;;;;4960950;28;90354;-31
2022/11/05 07:58:17;;;;;;;9.82;8.82;;;5.80;99.90;;;;;;4960763;28;90162;-29
2022/11/05 08:00:43;;;;;;;16.67;9.48;;;5.90;99.90;;;;;;4959764;28;87590;-28
2022/11/05 08:03:13;;;;;;;9.65;8.73;;;5.90;99.90;;;;;;4960257;28;87559;-28
2022/11/05 08:05:43;;;;;;;12.65;8.30;;;6.00;99.90;;;;;;4960540;28;90148;-31
2022/11/05 08:08:10;;;;;;;11.20;9.15;;;6.00;99.90;;;;;;4960769;28;89839;-32
2022/11/05 08:10:37;;;;;;;15.25;9.27;;;6.10;99.90;;;;;;4960871;28;89243;-30
2022/11/05 08:13:04;;;;;;;10.95;9.60;;;6.20;99.90;;;;;;4960790;28;87639;-29
2022/11/05 08:15:30;;;;;;;15.75;9.43;;;6.30;99.90;;;;;;4961234;28;90464;-32
2022/11/05 08:18:06;;;;;;;11.82;10.48;;;6.60;99.90;;;;;;4961211;28;89534;-27
2022/11/05 08:20:33;;;;;;;9.98;8.90;;;6.70;99.90;;;;;;4963432;28;89667;-29
2022/11/05 08:22:59;;;;;;;14.52;8.68;;;6.80;99.90;;;;;;4964322;28;88046;-31
2022/11/05 08:25:26;;;;;;;11.23;9.45;;;6.90;99.90;;;;;;4963588;28;89169;-28
2022/11/05 08:27:59;;;;;;;11.55;9.93;;;7.00;99.90;;;;;;4963498;28;89797;-28
2022/11/05 08:30:25;;;;;;;11.05;8.82;;;7.10;99.90;;;;;;4964658;28;87920;-28
2022/11/05 08:32:56;;;;;;;16.42;8.98;;;7.20;99.90;;;;;;4964324;28;89342;-29
2022/11/05 08:35:21;;;;;;;10.88;9.10;;;7.40;99.90;;;;;;4963494;28;91006;-28
2022/11/05 08:37:47;;;;;;;9.07;8.27;;;7.60;99.90;;;;;;4963498;28;89714;-30
2022/11/05 08:40:12;;;;;;;13.98;8.60;;;7.60;99.90;;;;;;4963547;28;89269;-29
2022/11/05 08:42:38;;;;;;;14.18;8.98;;;7.70;99.90;;;;;;4963832;28;88679;-29
2022/11/05 08:45:04;;;;;;;8.93;8.10;;;7.80;99.90;;;;;;4963675;28;90499;-29
2022/11/05 08:47:30;;;;;;;9.90;8.90;;;7.90;99.90;;;;;;4963500;28;89272;-29
2022/11/05 08:49:55;;;;;;;15.80;8.85;;;7.90;99.90;;;;;;4963492;28;90143;-29
2022/11/05 08:52:21;;;;;;;10.27;8.90;;;8.00;99.90;;;;;;4963272;28;89820;-28
2022/11/05 08:54:46;;;;;;;11.40;8.50;;;8.20;99.90;;;;;;4963358;28;90275;-31
2022/11/05 08:57:12;;;;;;;10.30;8.38;;;8.20;99.90;;;;;;4964077;28;89093;-30
2022/11/05 08:59:37;;;;;;;9.40;7.85;;;8.30;99.90;;;;;;4963582;28;88846;-32
2022/11/05 09:02:03;;;;;;;8.98;8.18;;;8.40;99.90;;;;;;4963795;28;89699;-30
2022/11/05 09:04:29;;;;;;;8.93;7.90;;;8.50;99.90;;;;;;4961603;28;91214;-29
2022/11/05 09:06:54;;;;;;;8.27;7.47;;;8.60;99.90;;;;;;4959703;28;89989;-27
2022/11/05 09:09:20;;;;;;;9.43;8.43;;;8.60;99.90;;;;;;4960304;28;89877;-29
2022/11/05 09:11:46;;;;;;;13.75;8.07;;;8.70;99.90;;;;;;4960883;28;88995;-31
2022/11/05 09:14:11;;;;;;;8.90;8.00;;;8.70;99.90;;;;;;4960630;28;90248;-32
2022/11/05 09:16:37;;;;;;;10.32;7.57;;;8.80;99.90;;;;;;4960548;28;89669;-31
2022/11/05 09:19:03;;;;;;;10.18;7.82;;;8.90;99.90;;;;;;4961235;28;89241;-29
2022/11/05 09:21:29;;;;;;;8.82;7.78;;;8.90;99.90;;;;;;4960552;28;88008;-30
2022/11/05 09:23:55;;;;;;;10.73;8.20;;;9.00;99.90;;;;;;4960958;28;90121;-31
2022/11/05 09:26:21;;;;;;;11.15;8.32;;;9.10;99.90;;;;;;4960334;28;89435;-29
2022/11/05 09:28:46;;;;;;;9.38;7.18;;;9.10;99.90;;;;;;4959064;28;89447;-32
2022/11/05 09:31:12;;;;;;;9.07;7.80;;;9.20;99.90;;;;;;4960251;28;89411;-30
2022/11/05 09:33:39;;;;;;;9.70;8.48;;;9.20;99.90;;;;;;4959644;28;90062;-29
2022/11/05 09:36:06;;;;;;;9.95;8.95;;;9.30;99.90;;;;;;4960175;28;90452;-30
2022/11/05 09:38:33;;;;;;;9.30;7.68;;;9.40;99.90;;;;;;4960980;28;89056;-30
2022/11/05 09:41:30;;;;;;;10.32;9.43;;;9.40;99.90;;;;;;4960598;28;88007;-30
2022/11/05 09:44:03;;;;;;;7.97;7.18;;;9.50;99.90;;;;;;4957232;28;90543;-31
2022/11/05 09:47:01;;;;;;;9.23;8.23;;;9.50;99.90;;;;;;4959723;28;89817;-31
2022/11/05 09:49:34;;;;;;;10.30;7.78;;;9.60;99.90;;;;;;4954162;28;89644;-30
2022/11/05 09:52:00;;;;;;;8.38;7.43;;;9.60;99.90;;;;;;4959400;28;90038;-32
2022/11/05 09:54:30;;;;;;;8.63;7.93;;;9.70;99.90;;;;;;4959072;28;90496;-30
2022/11/05 09:56:58;;;;;;;8.48;7.25;;;9.70;99.90;;;;;;4956733;28;90325;-29
2022/11/05 09:59:47;;;;;;;10.20;7.70;;;9.60;99.90;;;;;;4955643;28;90381;-31
2022/11/05 10:02:18;;;;;;;8.77;7.88;;;9.60;99.90;;;;;;4955097;28;89260;-31
2022/11/05 10:04:47;;;;;;;7.95;7.00;;;9.70;99.90;;;;;;4958465;28;90148;-30
2022/11/05 10:07:16;;;;;;;10.63;8.32;;;9.80;99.90;;;;;;4958623;28;89645;-29
2022/11/05 10:09:46;;;;;;;7.68;6.97;;;9.80;99.90;;;;;;4959010;28;89388;-30
2022/11/05 10:12:24;;;;;;;11.15;7.38;;;9.90;99.90;;;;;;4958432;28;90125;-30
2022/11/05 10:15:23;;;;;;;7.28;6.55;;;10.00;99.90;;;;;;4957846;28;90579;-29
2022/11/05 10:17:56;;;;;;;8.10;7.30;;;10.00;99.90;;;;;;4958362;28;90065;-30
2022/11/05 10:20:34;;;;;;;10.32;7.03;;;10.00;99.90;;;;;;4957295;28;89490;-29
2022/11/05 10:23:20;;;;;;;9.00;7.17;;;10.10;99.90;;;;;;4958084;28;89789;-32
2022/11/05 10:25:50;;;;;;;11.70;6.40;;;10.20;99.90;;;;;;4957770;28;89855;-28
2022/11/05 10:28:18;;;;;;;8.05;6.65;;;10.30;99.90;;;;;;4958535;28;90648;-30
2022/11/05 10:30:47;;;;;;;13.77;6.85;;;10.40;99.90;;;;;;4957693;28;89973;-29
2022/11/05 10:33:21;;;;;;;19.88;7.80;;;10.40;99.90;;;;;;4956847;28;88382;-29
2022/11/05 10:35:50;;;;;;;11.18;6.53;;;10.50;99.90;;;;;;4957537;28;90116;-31
2022/11/05 10:38:16;;;;;;;10.98;7.85;;;10.50;99.90;;;;;;4957706;28;89503;-27
2022/11/05 10:41:20;;;;;;;11.60;6.43;;;10.60;99.90;;;;;;4958290;28;89589;-31
2022/11/05 10:43:49;;;;;;;22.33;8.73;;;10.70;99.90;;;;;;4956149;28;90483;-28
2022/11/05 10:46:34;;;;;;;7.97;6.72;;;10.80;99.90;;;;;;4957418;28;90249;-30
2022/11/05 10:49:31;;;;;;;6.85;6.07;;;10.80;99.90;;;;;;4956588;28;90392;-31
2022/11/05 10:51:58;;;;;;;12.38;6.03;;;11.00;99.90;;;;;;4958097;28;91240;-29
2022/11/05 10:54:32;;;;;;;10.07;6.47;;;10.90;99.90;;;;;;4958136;28;89355;-30
2022/11/05 10:56:58;;;;;;;6.35;5.40;;;11.00;99.90;;;;;;4957132;28;91050;-31
2022/11/05 10:59:26;;;;;;;11.43;5.97;;;11.10;99.90;;;;;;4957397;28;90492;-32
2022/11/05 11:02:25;;;;;;;9.00;6.47;;;11.20;99.90;;;;;;4957241;28;90421;-31
2022/11/05 11:04:52;;;;;;;8.00;5.28;;;11.40;99.90;;;;;;4952246;28;90388;-29
2022/11/05 11:07:24;;;;;;;12.85;5.45;;;11.50;99.90;;;;;;4957354;28;90235;-33
2022/11/05 11:09:50;;;;;;;9.02;5.82;;;11.50;99.90;;;;;;4957224;28;90162;-32
2022/11/05 11:12:22;;;;;;;6.18;5.00;;;11.50;99.90;;;;;;4957544;28;90444;-29
2022/11/05 11:15:13;;;;;;;6.82;5.32;;;11.50;99.90;;;;;;4956651;28;89842;-31
2022/11/05 11:17:39;;;;;;;7.97;4.47;;;11.50;99.90;;;;;;4958409;28;90258;-31
2022/11/05 11:20:26;;;;;;;7.63;5.75;;;11.40;99.90;;;;;;4956652;28;89795;-28
2022/11/05 11:22:59;;;;;;;6.65;4.18;;;11.40;99.90;;;;;;4956598;28;89361;-28
2022/11/05 11:25:28;;;;;;;6.32;4.38;;;11.40;99.90;;;;;;4957235;28;87882;-29
2022/11/05 11:27:54;;;;;;;10.40;5.10;;;11.50;99.90;;;;;;4957845;28;89073;-29
2022/11/05 11:30:20;;;;;;;11.25;6.22;;;11.50;99.90;;;;;;4957405;28;90155;-30
2022/11/05 11:32:48;;;;;;;9.90;6.05;;;11.60;99.90;;;;;;4957139;28;89702;-30
2022/11/05 11:35:22;;;;;;;5.72;5.13;;;11.70;99.90;;;;;;4957358;28;88982;-28
2022/11/05 11:37:52;;;;;;;8.13;5.85;;;11.70;99.90;;;;;;4957147;28;90075;-31
2022/11/05 11:40:37;;;;;;;5.50;4.43;;;11.80;99.90;;;;;;4955757;28;91252;-32
2022/11/05 11:43:25;;;;;;;10.55;4.95;;;11.90;99.90;;;;;;4957669;28;91153;-33
2022/11/05 11:45:53;;;;;;;8.73;5.10;;;12.10;99.90;;;;;;4957561;28;88574;-29
2022/11/05 11:48:24;;;;;;;5.78;4.13;;;12.20;99.90;;;;;;4956303;28;90130;-31
2022/11/05 11:50:49;;;;;;;7.75;4.10;;;12.40;99.90;;;;;;4958705;28;89059;-29
2022/11/05 11:53:33;;;;;;;5.93;4.47;;;12.50;99.90;;;;;;4958304;28;89154;-31
2022/11/05 11:56:03;;;;;;;9.10;4.88;;;12.60;99.90;;;;;;4959062;28;89206;-30
2022/11/05 11:58:56;;;;;;;8.55;4.90;;;12.60;99.90;;;;;;4958047;28;89908;-31
2022/11/05 12:01:37;;;;;;;7.18;5.07;;;12.70;99.90;;;;;;4956324;28;88642;-27
2022/11/05 12:04:06;;;;;;;5.80;5.22;;;12.70;99.90;;;;;;4956807;28;89987;-27
2022/11/05 12:06:41;;;;;;;4.50;4.07;;;12.60;99.90;;;;;;4956184;28;90278;-30
2022/11/05 12:09:24;;;;;;;7.75;5.03;;;12.50;99.90;;;;;;4956796;28;90247;-32
2022/11/05 12:12:03;;;;;;;10.38;4.70;;;12.40;99.90;;;;;;4956629;28;90911;-29
2022/11/05 12:14:43;;;;;;;5.28;4.53;;;12.20;99.90;;;;;;4956484;28;89241;-31
2022/11/05 12:17:34;;;;;;;11.65;4.60;;;12.10;99.90;;;;;;4957483;28;89749;-30
2022/11/05 12:20:18;;;;;;;7.28;5.03;;;12.10;99.90;;;;;;4955529;28;90070;-32
2022/11/05 12:23:15;;;;;;;8.10;5.05;;;12.10;99.90;;;;;;4955760;28;89415;-30
2022/11/05 12:26:05;;;;;;;15.52;5.57;;;12.00;99.90;;;;;;4956248;28;90088;-31
2022/11/05 12:29:02;;;;;;;16.30;6.35;;;11.90;99.90;;;;;;4955172;28;88596;-30
2022/11/05 12:31:41;;;;;;;7.47;5.70;;;12.00;99.90;;;;;;4956245;28;90920;-32
2022/11/05 12:34:44;;;;;;;7.20;5.40;;;12.00;99.90;;;;;;4955080;28;90158;-29
2022/11/05 12:37:48;;;;;;;10.95;6.40;;;12.00;99.90;;;;;;4956539;28;90435;-32
2022/11/05 12:40:41;;;;;;;6.45;5.60;;;11.90;99.90;;;;;;4956793;28;89641;-27
2022/11/05 12:43:18;;;;;;;7.65;6.03;;;11.90;99.90;;;;;;4956273;28;90847;-29
2022/11/05 12:46:08;;;;;;;11.07;6.13;;;11.90;99.90;;;;;;4956754;28;90415;-31
2022/11/05 12:49:05;;;;;;;6.53;5.25;;;12.00;99.90;;;;;;4955966;28;90149;-32
2022/11/05 12:51:49;;;;;;;12.15;6.78;;;11.90;99.90;;;;;;4957144;28;89448;-31
2022/11/05 12:54:25;;;;;;;6.85;6.05;;;11.80;99.90;;;;;;4956889;28;91720;-28
2022/11/05 12:56:57;;;;;;;7.45;5.95;;;11.80;99.90;;;;;;4955937;28;89744;-32
2022/11/05 12:59:38;;;;;;;9.98;6.82;;;11.80;99.90;;;;;;4956016;28;91875;-31
2022/11/05 13:02:18;;;;;;;10.57;6.35;;;11.70;99.90;;;;;;4956683;28;90264;-30
2022/11/05 13:04:56;;;;;;;7.35;6.13;;;11.70;99.90;;;;;;4956668;28;90496;-29
2022/11/05 13:07:36;;;;;;;7.65;6.15;;;11.70;99.90;;;;;;4959728;28;90325;-28
2022/11/05 13:10:19;;;;;;;10.32;6.45;;;11.70;99.90;;;;;;4958883;28;89007;-29
2022/11/05 13:12:52;;;;;;;7.50;6.05;;;11.70;99.90;;;;;;4958832;28;89292;-33
2022/11/05 13:15:23;;;;;;;6.47;5.90;;;11.70;99.90;;;;;;4959836;28;90192;-29
2022/11/05 13:17:58;;;;;;;10.38;5.93;;;11.80;99.90;;;;;;4959319;28;89418;-29
2022/11/05 13:20:28;;;;;;;9.85;6.05;;;11.80;99.90;;;;;;4958993;28;89505;-31
2022/11/05 13:23:05;;;;;;;6.65;5.57;;;11.80;99.90;;;;;;4958779;28;89256;-30
2022/11/05 13:25:37;;;;;;;7.25;6.25;;;11.80;99.90;;;;;;4959420;28;89850;-30
2022/11/05 13:28:13;;;;;;;7.60;5.53;;;11.90;99.90;;;;;;4958799;28;90638;-28
2022/11/05 13:30:44;;;;;;;7.00;5.15;;;11.90;99.90;;;;;;4958438;28;90532;-30
2022/11/05 13:33:15;;;;;;;6.55;5.22;;;11.90;99.90;;;;;;4958902;28;88559;-28
2022/11/05 13:38:58;;;;;;;7.57;5.10;;;11.90;99.90;;;;;;4958867;28;91633;-29
2022/11/05 13:38:58;;;;;;;6.00;5.50;;;12.00;99.90;;;;;;4958996;28;90047;-28
2022/11/05 13:41:54;;;;;;;7.97;5.35;;;12.00;99.90;;;;;;4958119;28;89807;-31
2022/11/05 13:44:28;;;;;;;10.88;5.85;;;11.90;99.90;;;;;;4959132;28;89210;-33
2022/11/05 13:47:26;;;;;;;9.82;5.80;;;11.90;99.90;;;;;;4958409;28;90815;-30
2022/11/05 13:50:29;;;;;;;8.68;6.47;;;11.90;99.90;;;;;;4954101;28;91190;-31
2022/11/05 13:53:03;;;;;;;5.50;4.95;;;11.90;99.90;;;;;;4958433;28;89192;-29
2022/11/05 13:56:08;;;;;;;8.45;6.13;;;11.80;99.90;;;;;;4958546;28;90389;-30